EYVI/VNO METAR and TAF weather

Enter ICAO airport designator
Station Type Date Time Source
EYVI METAR 2019/12/13 14:20 UTC NOAA

EYVI 131420Z 14011KT 5000 -DZ BR OVC005 01/M00 Q1000 R19/2///95 NOSIG


Station Type Date Time Source
EYVI Decoded METAR 2019/12/13 14:20 UTC NOAA

Vilnius, Lithuania (EYVI) 54-38N 025-06E 156M
Dec 13, 2019 - 09:20 AM EST / 2019.12.13 1420 UTC
Wind: from the SE (140 degrees) at 13 MPH (11 KT):0
Visibility: 3 mile(s):0
Sky conditions: overcast
Weather: light drizzle; mist
Temperature: 33 F (1 C)
Windchill: 23 F (-5 C):1
Dew Point: 32 F (0 C)
Relative Humidity: 93%
Pressure (altimeter): 29.53 in. Hg (1000 hPa)
ob: EYVI 131420Z 14011KT 5000 -DZ BR OVC005 01/M00 Q1000 R19/2///95 NOSIG
cycle: 14

Station Type Date Time Source
EYVI TAF 2019/12/13 12:06 UTC NOAA

TAF TAF EYVI 131101Z 1312/1412 14016KT 6000 OVC010
TEMPO 1312/1403 -RASN OVC005
TEMPO 1403/1412 OVC005

Example: see airport list